createdAt,value
2018-06-03T00:01:41.324Z,17.10
2018-06-03T00:04:09.992Z,17.00
2018-06-03T00:06:38.651Z,17.00
2018-06-03T00:09:07.316Z,17.10
2018-06-03T00:11:35.958Z,17.00
2018-06-03T00:14:04.635Z,17.00
2018-06-03T00:16:33.287Z,17.00
2018-06-03T00:19:01.959Z,17.00
2018-06-03T00:21:42.072Z,17.00
2018-06-03T00:24:10.775Z,17.00
2018-06-03T00:26:39.655Z,16.90
2018-06-03T00:29:08.563Z,16.90
2018-06-03T00:31:37.447Z,16.80
2018-06-03T00:34:06.354Z,16.80
2018-06-03T00:36:44.459Z,16.80
2018-06-03T00:39:13.381Z,16.80
2018-06-03T00:41:42.287Z,16.90
2018-06-03T00:44:11.206Z,16.80
2018-06-03T00:46:40.100Z,16.80
2018-06-03T00:49:09.007Z,16.90
2018-06-03T00:51:37.890Z,16.90
2018-06-03T00:54:06.795Z,16.90
2018-06-03T00:56:47.123Z,16.90
2018-06-03T00:59:16.025Z,17.00
2018-06-03T01:01:44.981Z,17.00
2018-06-03T01:04:13.940Z,16.90
2018-06-03T01:06:42.859Z,17.00
2018-06-03T01:09:11.803Z,17.00
2018-06-03T01:11:40.715Z,17.00
2018-06-03T01:14:10.622Z,16.90
2018-06-03T01:16:39.535Z,16.80
2018-06-03T01:19:08.439Z,16.70
2018-06-03T01:21:37.355Z,16.60
2018-06-03T01:24:06.259Z,16.50
2018-06-03T01:26:35.167Z,16.50
2018-06-03T01:29:04.075Z,16.60
2018-06-03T01:31:32.972Z,16.50
2018-06-03T01:34:01.888Z,16.50
2018-06-03T01:36:30.779Z,16.40
2018-06-03T01:38:59.686Z,16.30
2018-06-03T01:41:28.594Z,16.20
2018-06-03T01:43:57.489Z,16.10
2018-06-03T01:46:26.405Z,16.10
2018-06-03T01:48:55.323Z,16.20
2018-06-03T01:51:24.227Z,16.30
2018-06-03T01:53:53.130Z,16.40
2018-06-03T01:56:22.048Z,16.40
2018-06-03T01:58:50.947Z,16.40
2018-06-03T02:03:48.403Z,16.40
2018-06-03T02:06:17.335Z,16.40
2018-06-03T02:08:46.250Z,16.40
2018-06-03T02:11:15.179Z,16.30
2018-06-03T02:13:44.091Z,16.40
2018-06-03T02:16:12.987Z,16.40
2018-06-03T02:18:41.891Z,16.30
2018-06-03T02:21:10.794Z,16.30
2018-06-03T02:23:40.347Z,16.30
2018-06-03T02:26:09.268Z,16.20
2018-06-03T02:28:38.159Z,16.10
2018-06-03T02:31:07.083Z,16.00
2018-06-03T02:33:35.975Z,15.80
2018-06-03T02:36:04.902Z,15.70
2018-06-03T02:38:33.860Z,15.60
2018-06-03T02:41:02.811Z,15.70
2018-06-03T02:43:31.847Z,15.70
2018-06-03T02:46:00.811Z,15.70
2018-06-03T02:48:29.711Z,15.70
2018-06-03T02:50:58.620Z,15.80
2018-06-03T02:53:27.518Z,15.80
2018-06-03T02:55:56.419Z,15.80
2018-06-03T02:58:25.325Z,15.80
2018-06-03T03:00:54.512Z,15.80
2018-06-03T03:03:23.406Z,15.70
2018-06-03T03:05:52.326Z,15.70
2018-06-03T03:08:21.231Z,15.70
2018-06-03T03:10:50.149Z,15.60
2018-06-03T03:13:19.042Z,15.50
2018-06-03T03:15:47.948Z,15.50
2018-06-03T03:18:16.849Z,15.40
2018-06-03T03:20:45.778Z,15.30
2018-06-03T03:23:15.123Z,15.30
2018-06-03T03:25:44.018Z,15.30
2018-06-03T03:28:12.915Z,15.30
2018-06-03T03:30:41.822Z,15.20
2018-06-03T03:33:10.718Z,15.10
2018-06-03T03:35:39.643Z,15.10
2018-06-03T03:38:08.858Z,15.20
2018-06-03T03:40:37.767Z,15.20
2018-06-03T03:43:07.041Z,15.30
2018-06-03T03:45:36.163Z,15.30
2018-06-03T03:48:05.058Z,15.30
2018-06-03T03:50:33.952Z,15.40
2018-06-03T03:53:02.867Z,15.40
2018-06-03T03:55:31.754Z,15.50
2018-06-03T03:58:00.653Z,15.40
2018-06-03T04:00:29.552Z,15.40
2018-06-03T04:02:58.465Z,15.40
2018-06-03T04:05:27.378Z,15.50
2018-06-03T04:07:56.557Z,15.50
2018-06-03T04:10:25.478Z,15.50
2018-06-03T04:12:54.433Z,15.50
2018-06-03T04:15:23.326Z,15.50
2018-06-03T04:17:52.234Z,15.50
2018-06-03T04:20:21.159Z,15.50
2018-06-03T04:22:50.070Z,15.50
2018-06-03T04:25:18.967Z,15.50
2018-06-03T04:27:48.194Z,15.60
2018-06-03T04:30:17.083Z,15.60
2018-06-03T04:32:46.107Z,15.70
2018-06-03T04:35:14.990Z,15.80
2018-06-03T04:37:43.882Z,15.90
2018-06-03T04:40:13.031Z,15.90
2018-06-03T04:42:41.943Z,15.90
2018-06-03T04:45:10.831Z,15.90
2018-06-03T04:47:39.740Z,15.90
2018-06-03T04:50:08.618Z,15.90
2018-06-03T04:52:37.519Z,15.80
2018-06-03T04:55:06.432Z,15.90
2018-06-03T04:57:35.319Z,16.00
2018-06-03T05:00:04.211Z,16.00
2018-06-03T05:02:33.132Z,16.10
2018-06-03T05:05:02.026Z,16.20
2018-06-03T05:07:31.058Z,16.30
2018-06-03T05:09:59.951Z,16.30
2018-06-03T05:12:29.363Z,16.50
2018-06-03T05:14:58.257Z,16.70
2018-06-03T05:17:27.159Z,16.80
2018-06-03T05:19:56.078Z,16.90
2018-06-03T05:22:25.000Z,17.10
2018-06-03T05:24:53.952Z,17.30
2018-06-03T05:27:22.848Z,17.30
2018-06-03T05:29:51.755Z,17.40
2018-06-03T05:32:20.682Z,17.50
2018-06-03T05:34:49.582Z,17.50
2018-06-03T05:37:18.492Z,17.70
2018-06-03T05:39:47.388Z,17.70
2018-06-03T05:42:16.351Z,17.70
2018-06-03T05:44:45.329Z,17.80
2018-06-03T05:47:20.667Z,17.80
2018-06-03T05:49:49.601Z,17.90
2018-06-03T05:52:18.518Z,18.00
2018-06-03T05:54:47.539Z,18.00
2018-06-03T05:57:16.455Z,18.00
2018-06-03T05:59:45.366Z,18.00
2018-06-03T06:02:14.388Z,17.90
2018-06-03T06:04:43.306Z,17.90
2018-06-03T06:07:12.207Z,18.00
2018-06-03T06:09:41.116Z,18.10
2018-06-03T06:12:10.057Z,18.10
2018-06-03T06:14:38.935Z,18.00
2018-06-03T06:17:07.848Z,18.00
2018-06-03T06:19:36.854Z,18.10
2018-06-03T06:22:05.774Z,18.20
2018-06-03T06:24:34.691Z,18.20
2018-06-03T06:27:03.651Z,18.40
2018-06-03T06:29:32.551Z,18.50
2018-06-03T06:32:01.451Z,18.50
2018-06-03T06:34:30.381Z,18.60
2018-06-03T06:36:59.270Z,18.70
2018-06-03T06:39:28.198Z,18.70
2018-06-03T06:41:57.103Z,18.80
2018-06-03T06:44:26.023Z,19.10
2018-06-03T06:46:54.923Z,19.40
2018-06-03T06:49:23.830Z,19.50
2018-06-03T06:51:52.743Z,19.50
2018-06-03T06:54:21.830Z,19.60
2018-06-03T06:56:50.751Z,19.60
2018-06-03T06:59:19.670Z,19.80
2018-06-03T07:01:48.561Z,19.80
2018-06-03T07:04:17.555Z,19.70
2018-06-03T07:06:46.475Z,19.80
2018-06-03T07:09:15.343Z,20.00
2018-06-03T07:11:44.224Z,20.30
2018-06-03T07:14:13.119Z,20.50
2018-06-03T07:16:42.006Z,20.70
2018-06-03T07:19:10.903Z,20.60
2018-06-03T07:21:39.787Z,20.80
2018-06-03T07:24:08.685Z,20.90
2018-06-03T07:26:37.583Z,21.00
2018-06-03T07:29:06.476Z,21.30
2018-06-03T07:31:35.353Z,21.50
2018-06-03T07:34:04.254Z,21.50
2018-06-03T07:36:33.164Z,21.50
2018-06-03T07:39:02.063Z,21.60
2018-06-03T07:41:30.994Z,21.80
2018-06-03T07:43:59.895Z,21.60
2018-06-03T07:46:28.786Z,21.60
2018-06-03T07:48:58.593Z,21.40
2018-06-03T07:51:28.908Z,21.40
2018-06-03T07:53:59.618Z,21.30
2018-06-03T07:56:30.223Z,21.10
2018-06-03T07:59:00.881Z,20.90
2018-06-03T08:01:30.817Z,20.90
2018-06-03T08:04:00.455Z,20.90
2018-06-03T08:06:30.981Z,20.90
2018-06-03T08:09:00.679Z,20.90
2018-06-03T08:11:30.523Z,21.10
2018-06-03T08:13:59.531Z,21.20
2018-06-03T08:16:28.459Z,21.10
2018-06-03T08:18:57.511Z,21.40
2018-06-03T08:21:26.435Z,21.50
2018-06-03T08:23:55.319Z,21.40
2018-06-03T08:26:24.226Z,21.40
2018-06-03T08:28:53.120Z,21.50
2018-06-03T08:31:22.039Z,21.50
2018-06-03T08:33:50.970Z,21.80
2018-06-03T08:36:19.905Z,22.00
2018-06-03T08:38:48.893Z,22.10
2018-06-03T08:41:17.843Z,22.40
2018-06-03T08:43:46.742Z,22.30
2018-06-03T08:46:15.622Z,22.20
2018-06-03T08:48:44.502Z,22.20
2018-06-03T08:51:13.498Z,22.10
2018-06-03T08:53:42.395Z,22.20
2018-06-03T08:56:11.309Z,22.30
2018-06-03T08:58:40.223Z,22.40
2018-06-03T09:01:09.135Z,22.50
2018-06-03T09:03:38.043Z,22.80
2018-06-03T09:06:06.976Z,23.10
2018-06-03T09:08:35.878Z,23.50
2018-06-03T09:11:04.803Z,23.80
2018-06-03T09:13:33.691Z,24.00
2018-06-03T09:16:02.619Z,24.30
2018-06-03T09:18:31.510Z,24.50
2018-06-03T09:21:00.423Z,24.70
2018-06-03T09:23:29.330Z,24.70
2018-06-03T09:25:58.286Z,24.30
2018-06-03T09:28:27.176Z,23.70
2018-06-03T09:31:01.625Z,23.50
2018-06-03T09:33:30.907Z,23.30
2018-06-03T09:35:59.831Z,23.30
2018-06-03T09:38:28.723Z,23.30
2018-06-03T09:40:57.641Z,23.10
2018-06-03T09:43:26.519Z,23.20
2018-06-03T09:45:55.429Z,23.40
2018-06-03T09:48:24.318Z,23.60
2018-06-03T09:50:53.239Z,23.50
2018-06-03T09:53:22.227Z,23.60
2018-06-03T09:55:51.051Z,23.30
2018-06-03T09:58:19.955Z,23.00
2018-06-03T10:00:49.125Z,22.70
2018-06-03T10:03:18.078Z,22.40
2018-06-03T10:05:46.991Z,22.20
2018-06-03T10:08:15.889Z,22.00
2018-06-03T10:10:44.779Z,22.00
2018-06-03T10:13:13.958Z,21.90
2018-06-03T10:15:42.951Z,21.90
2018-06-03T10:20:40.408Z,21.90
2018-06-03T10:23:09.308Z,21.90
2018-06-03T10:25:38.232Z,21.90
2018-06-03T10:28:07.190Z,22.10
2018-06-03T10:33:05.472Z,22.10
2018-06-03T10:35:34.491Z,22.20
2018-06-03T10:38:03.433Z,22.10
2018-06-03T10:40:32.322Z,22.20
2018-06-03T10:43:01.228Z,22.20
2018-06-03T10:45:30.128Z,22.30
2018-06-03T10:47:59.029Z,22.30
2018-06-03T10:50:27.926Z,22.40
2018-06-03T10:52:56.820Z,22.40
2018-06-03T10:55:25.714Z,22.60
2018-06-03T10:57:54.623Z,22.90
2018-06-03T11:00:23.535Z,22.90
2018-06-03T11:02:52.510Z,23.20
2018-06-03T11:05:21.417Z,23.30
2018-06-03T11:07:50.482Z,23.40
2018-06-03T11:10:19.466Z,23.40
2018-06-03T11:12:48.596Z,23.40
2018-06-03T11:15:18.476Z,23.60
2018-06-03T11:17:47.590Z,23.80
2018-06-03T11:20:16.522Z,23.90
2018-06-03T11:22:45.440Z,23.90
2018-06-03T11:25:14.347Z,24.00
2018-06-03T11:27:43.361Z,24.20
2018-06-03T11:30:12.249Z,24.30
2018-06-03T11:32:41.157Z,24.40
2018-06-03T11:35:10.068Z,24.20
2018-06-03T11:37:39.924Z,24.30
2018-06-03T11:40:08.812Z,24.30
2018-06-03T11:42:37.723Z,24.30
2018-06-03T11:45:08.031Z,24.40
2018-06-03T11:47:36.940Z,24.40
2018-06-03T11:50:05.857Z,24.40
2018-06-03T11:52:40.793Z,24.40
2018-06-03T11:55:10.284Z,24.60
2018-06-03T11:57:50.439Z,24.80
2018-06-03T12:00:19.348Z,24.90
2018-06-03T12:02:48.246Z,25.00
2018-06-03T12:05:17.206Z,25.00
2018-06-03T12:07:46.185Z,25.00
2018-06-03T12:10:15.091Z,25.00
2018-06-03T12:12:43.993Z,24.90
2018-06-03T12:15:12.900Z,24.90
2018-06-03T12:17:41.786Z,24.80
2018-06-03T12:20:10.683Z,25.00
2018-06-03T12:22:39.574Z,25.10
2018-06-03T12:25:08.483Z,25.10
2018-06-03T12:27:37.373Z,25.10
2018-06-03T12:30:06.270Z,25.00
2018-06-03T12:32:35.163Z,25.20
2018-06-03T12:35:04.076Z,25.50
2018-06-03T12:37:32.966Z,25.50
2018-06-03T12:40:01.870Z,25.30
2018-06-03T12:42:30.755Z,25.30
2018-06-03T12:44:59.658Z,25.20
2018-06-03T12:47:28.569Z,25.00
2018-06-03T12:49:57.471Z,25.00
2018-06-03T12:52:26.539Z,25.00
2018-06-03T12:54:55.451Z,24.80
2018-06-03T12:57:24.338Z,24.90
2018-06-03T12:59:53.260Z,24.80
2018-06-03T13:02:22.218Z,24.50
2018-06-03T13:04:51.117Z,24.30
2018-06-03T13:07:20.000Z,24.30
2018-06-03T13:09:48.907Z,24.20
2018-06-03T13:12:17.805Z,24.00
2018-06-03T13:14:46.708Z,23.90
2018-06-03T13:17:15.740Z,23.70
2018-06-03T13:19:44.616Z,23.70
2018-06-03T13:22:13.542Z,23.60
2018-06-03T13:24:42.447Z,23.50
2018-06-03T13:27:11.351Z,23.40
2018-06-03T13:29:40.247Z,23.50
2018-06-03T13:32:09.347Z,23.60
2018-06-03T13:34:38.236Z,23.50
2018-06-03T13:37:07.215Z,23.50
2018-06-03T13:39:36.106Z,23.60
2018-06-03T13:42:05.223Z,23.70
2018-06-03T13:44:34.121Z,23.90
2018-06-03T13:47:03.019Z,24.40
2018-06-03T13:49:31.915Z,24.90
2018-06-03T13:52:00.816Z,25.20
2018-06-03T13:54:29.707Z,25.30
2018-06-03T13:56:58.611Z,25.50
2018-06-03T13:59:27.856Z,25.40
2018-06-03T14:01:56.776Z,25.10
2018-06-03T14:04:25.650Z,25.20
2018-06-03T14:06:54.563Z,25.20
2018-06-03T14:09:23.452Z,25.30
2018-06-03T14:11:52.360Z,25.60
2018-06-03T14:14:21.275Z,25.60
2018-06-03T14:16:50.176Z,25.50
2018-06-03T14:19:19.070Z,25.40
2018-06-03T14:21:47.983Z,25.10
2018-06-03T14:24:16.866Z,24.80
2018-06-03T14:26:45.762Z,24.60
2018-06-03T14:29:14.681Z,24.40
2018-06-03T14:31:43.589Z,24.20
2018-06-03T14:34:12.855Z,24.20
2018-06-03T14:36:41.787Z,24.20
2018-06-03T14:39:11.214Z,24.00
2018-06-03T14:41:40.114Z,23.80
2018-06-03T14:44:09.022Z,23.70
2018-06-03T14:46:37.902Z,23.60
2018-06-03T14:49:07.211Z,23.60
2018-06-03T14:51:36.675Z,23.70
2018-06-03T14:54:06.605Z,23.80
2018-06-03T14:56:35.491Z,23.70
2018-06-03T14:59:04.351Z,23.70
2018-06-03T15:01:33.526Z,23.60
2018-06-03T15:04:02.442Z,23.70
2018-06-03T15:06:31.396Z,23.60
2018-06-03T15:09:00.315Z,23.60
2018-06-03T15:11:29.210Z,23.50
2018-06-03T15:13:58.122Z,23.30
2018-06-03T15:16:27.043Z,23.40
2018-06-03T15:21:24.543Z,23.50
2018-06-03T15:23:53.719Z,23.50
2018-06-03T15:26:22.603Z,23.40
2018-06-03T15:28:51.539Z,23.30
2018-06-03T15:31:20.459Z,23.40
2018-06-03T15:33:49.400Z,23.40
2018-06-03T15:36:18.266Z,23.50
2018-06-03T15:38:47.188Z,23.40
2018-06-03T15:41:16.080Z,23.30
2018-06-03T15:46:13.547Z,23.10
2018-06-03T15:48:42.467Z,23.10
2018-06-03T15:51:11.367Z,23.20
2018-06-03T15:53:40.375Z,23.10
2018-06-03T15:56:09.271Z,23.10
2018-06-03T15:58:38.185Z,23.20
2018-06-03T16:01:07.079Z,23.10
2018-06-03T16:03:36.039Z,23.20
2018-06-03T16:06:04.918Z,23.20
2018-06-03T16:08:33.827Z,23.20
2018-06-03T16:11:02.727Z,23.30
2018-06-03T16:13:31.632Z,23.30
2018-06-03T16:16:00.519Z,23.20
2018-06-03T16:18:29.424Z,23.20
2018-06-03T16:20:58.351Z,23.20
2018-06-03T16:23:27.237Z,23.00
2018-06-03T16:28:24.670Z,22.90
2018-06-03T16:30:53.632Z,22.90
2018-06-03T16:33:22.534Z,22.80
2018-06-03T16:35:51.468Z,22.80
2018-06-03T16:38:20.468Z,22.80
2018-06-03T16:40:49.363Z,22.80
2018-06-03T16:43:18.302Z,22.80
2018-06-03T16:45:47.203Z,22.80
2018-06-03T16:50:44.942Z,22.80
2018-06-03T16:53:14.666Z,22.80
2018-06-03T16:55:43.715Z,22.80
2018-06-03T16:58:13.285Z,22.80
2018-06-03T17:00:42.208Z,22.80
2018-06-03T17:03:11.487Z,22.80
2018-06-03T17:05:40.566Z,22.80
2018-06-03T17:08:10.178Z,22.80
2018-06-03T17:10:39.079Z,22.80
2018-06-03T17:13:07.967Z,22.70
2018-06-03T17:15:36.863Z,22.70
2018-06-03T17:18:05.947Z,22.60
2018-06-03T17:20:35.042Z,22.70
2018-06-03T17:23:03.875Z,22.70
2018-06-03T17:25:32.767Z,22.70
2018-06-03T17:28:01.802Z,22.70
2018-06-03T17:30:30.730Z,22.70
2018-06-03T17:33:00.088Z,22.70
2018-06-03T17:35:29.133Z,22.80
2018-06-03T17:37:58.007Z,22.80
2018-06-03T17:40:27.153Z,22.80
2018-06-03T17:42:56.092Z,22.50
2018-06-03T17:45:25.202Z,22.60
2018-06-03T17:47:54.130Z,22.70
2018-06-03T17:50:23.346Z,22.70
2018-06-03T17:52:52.372Z,22.80
2018-06-03T17:55:21.259Z,22.80
2018-06-03T17:57:50.373Z,22.90
2018-06-03T18:00:19.273Z,22.90
2018-06-03T18:02:48.503Z,22.90
2018-06-03T18:05:17.411Z,22.90
2018-06-03T18:07:46.334Z,22.90
2018-06-03T18:10:15.225Z,22.90
2018-06-03T18:12:44.190Z,22.80
2018-06-03T18:15:13.092Z,22.90
2018-06-03T18:17:42.019Z,22.80
2018-06-03T18:20:10.906Z,22.80
2018-06-03T18:22:39.817Z,22.70
2018-06-03T18:25:08.723Z,22.70
2018-06-03T18:27:37.655Z,22.60
2018-06-03T18:30:06.650Z,22.60
2018-06-03T18:32:35.582Z,22.60
2018-06-03T18:35:04.487Z,22.50
2018-06-03T18:37:33.391Z,22.40
2018-06-03T18:40:02.296Z,22.40
2018-06-03T18:42:31.193Z,22.30
2018-06-03T18:45:00.319Z,22.20
2018-06-03T18:47:29.211Z,22.20
2018-06-03T18:49:58.091Z,22.10
2018-06-03T18:52:26.991Z,22.10
2018-06-03T18:54:55.883Z,22.00
2018-06-03T18:57:24.787Z,22.00
2018-06-03T18:59:53.680Z,21.90
2018-06-03T19:02:22.579Z,21.80
2018-06-03T19:04:51.471Z,21.70
2018-06-03T19:07:20.826Z,21.60
2018-06-03T19:09:49.771Z,21.60
2018-06-03T19:12:18.679Z,21.50
2018-06-03T19:14:47.559Z,21.40
2018-06-03T19:17:16.478Z,21.40
2018-06-03T19:19:45.718Z,21.20
2018-06-03T19:22:14.609Z,21.10
2018-06-03T19:24:43.509Z,21.00
2018-06-03T19:27:12.392Z,20.90
2018-06-03T19:29:41.383Z,20.70
2018-06-03T19:32:10.271Z,20.60
2018-06-03T19:34:39.258Z,20.60
2018-06-03T19:37:08.135Z,20.40
2018-06-03T19:39:38.047Z,20.20
2018-06-03T19:42:06.937Z,20.10
2018-06-03T19:44:35.848Z,20.10
2018-06-03T19:47:04.975Z,20.00
2018-06-03T19:49:33.873Z,19.90
2018-06-03T19:52:02.757Z,19.90
2018-06-03T19:54:31.654Z,19.80
2018-06-03T19:57:00.607Z,19.70
2018-06-03T19:59:30.726Z,19.60
2018-06-03T20:02:01.065Z,19.60
2018-06-03T20:04:30.073Z,19.50
2018-06-03T20:06:58.942Z,19.50
2018-06-03T20:09:27.840Z,19.30
2018-06-03T20:11:56.730Z,19.20
2018-06-03T20:14:25.660Z,19.20
2018-06-03T20:16:54.620Z,19.10
2018-06-03T20:19:23.630Z,19.00
2018-06-03T20:21:52.523Z,19.00
2018-06-03T20:26:49.960Z,18.90
2018-06-03T20:29:18.870Z,18.90
2018-06-03T20:31:47.752Z,18.80
2018-06-03T20:34:16.650Z,18.60
2018-06-03T20:36:45.546Z,18.50
2018-06-03T20:39:14.449Z,18.50
2018-06-03T20:41:43.326Z,18.50
2018-06-03T20:44:12.218Z,18.40
2018-06-03T20:46:41.119Z,18.40
2018-06-03T20:49:10.010Z,18.30
2018-06-03T20:51:38.910Z,18.30
2018-06-03T20:54:07.809Z,18.20
2018-06-03T20:56:36.694Z,18.20
2018-06-03T20:59:05.579Z,18.20
2018-06-03T21:01:34.467Z,18.20
2018-06-03T21:04:03.351Z,18.20
2018-06-03T21:06:32.275Z,18.20
2018-06-03T21:09:01.159Z,18.20
2018-06-03T21:11:30.064Z,18.20
2018-06-03T21:13:58.963Z,18.10
2018-06-03T21:16:28.279Z,18.10
2018-06-03T21:21:25.735Z,18.00
2018-06-03T21:23:54.635Z,17.90
2018-06-03T21:26:23.539Z,17.90
2018-06-03T21:28:52.453Z,17.90
2018-06-03T21:31:21.351Z,17.80
2018-06-03T21:33:50.257Z,17.70
2018-06-03T21:36:19.142Z,17.60
2018-06-03T21:38:48.050Z,17.60
2018-06-03T21:41:16.971Z,17.60
2018-06-03T21:43:45.892Z,17.60
2018-06-03T21:46:14.777Z,17.60
2018-06-03T21:48:43.687Z,17.60
2018-06-03T21:51:12.687Z,17.50
2018-06-03T21:53:41.627Z,17.50
2018-06-03T21:56:10.563Z,17.30
2018-06-03T21:58:39.491Z,17.30
2018-06-03T22:01:08.379Z,17.40
2018-06-03T22:03:37.292Z,17.20
2018-06-03T22:06:06.199Z,17.20
2018-06-03T22:08:35.104Z,17.10
2018-06-03T22:11:03.996Z,17.10
2018-06-03T22:13:32.906Z,17.10
2018-06-03T22:16:01.790Z,17.10
2018-06-03T22:18:30.719Z,17.10
2018-06-03T22:20:59.630Z,17.10
2018-06-03T22:23:28.541Z,17.10
2018-06-03T22:25:57.978Z,17.10
2018-06-03T22:28:26.843Z,17.00
2018-06-03T22:30:55.738Z,17.10
2018-06-03T22:33:24.639Z,16.90
2018-06-03T22:35:53.850Z,16.90
2018-06-03T22:38:22.757Z,16.90
2018-06-03T22:40:51.664Z,16.90
2018-06-03T22:43:20.570Z,16.80
2018-06-03T22:45:49.539Z,16.70
2018-06-03T22:48:18.455Z,16.70
2018-06-03T22:50:47.620Z,16.70
2018-06-03T22:53:16.526Z,16.70
2018-06-03T22:55:46.247Z,16.60
2018-06-03T22:58:15.383Z,16.60
2018-06-03T23:00:44.277Z,16.60
2018-06-03T23:03:15.477Z,16.60
2018-06-03T23:05:44.387Z,16.50
2018-06-03T23:08:13.290Z,16.60
2018-06-03T23:10:42.183Z,16.60
2018-06-03T23:13:11.078Z,16.60
2018-06-03T23:18:08.531Z,16.50
2018-06-03T23:20:37.431Z,16.40
2018-06-03T23:23:06.334Z,16.40
2018-06-03T23:25:35.250Z,16.30
2018-06-03T23:28:04.162Z,16.40
2018-06-03T23:30:33.063Z,16.30
2018-06-03T23:33:01.951Z,16.30
2018-06-03T23:35:30.856Z,16.20
2018-06-03T23:37:59.759Z,16.20
2018-06-03T23:40:29.014Z,16.20
2018-06-03T23:42:57.963Z,16.10
2018-06-03T23:45:26.883Z,16.10
2018-06-03T23:47:55.826Z,16.10
2018-06-03T23:50:24.754Z,16.10
2018-06-03T23:52:53.670Z,16.10
2018-06-03T23:55:22.575Z,16.10
2018-06-03T23:57:51.472Z,16.10
